Impacts TAF Board INFO
FOR SITUATIONAL AWARENESS. NOT TO BE USED FOR FLIGHT PLANNING PURPOSES.
IDs:

KCLT - Charlotte/Douglas In, NC, US

Issued at 2105 UTC 20 Nov 2017
Updated at 2117 UTC 20 Nov 2017
Potential Impact None Slight Moderate High
Time2052Z 20/22Z 20/23Z 21/00Z 21/01Z 21/02Z 21/03Z 21/04Z 21/05Z 21/06Z 21/07Z 21/08Z 21/09Z 21/10Z>>
Type OBS PRVL PRVL PRVL PRVL PRVL PRVL PRVL PRVL PRVL PRVL PRVL PRVL PRVL
VIS 10 >6 >6 >6 >6 >6 >6 >6 >6 >6 >6 >6 >6 >6
CIG 250 250 250 250 250 250 200 200 200 200 200 200 200 200
Cover BKN BKN BKN BKN BKN BKN BKN BKN BKN BKN BKN BKN BKN BKN
FltCat VFR VFR VFR VFR VFR VFR VFR VFR VFR VFR VFR VFR VFR VFR
WX -- -- -- -- -- -- -- -- -- -- -- -- -- --
WDir 220 210 210 210 210 210 190 190 190 190 190 190 190 190
WSpd 5 4 4 4 4 4 3 3 3 3 3 3 3 3
WGst -- -- -- -- -- -- -- -- -- -- -- -- -- --

Raw TAF
KCLT 202105Z 2021/2118 21004KT P6SM BKN250
  FM210300 19003KT P6SM BKN200
  FM211200 18002KT P6SM BKN035
  FM211500 17002KT P6SM BKN025


Raw METAR
KCLT 202052Z 22005KT 10SM BKN250 13/M03 A3022 RMK AO2 SLP235 T01331033 55007
KCLT 201952Z 00000KT 10SM SCT250 14/M04 A3021 RMK AO2 SLP232 T01441039
KCLT 201852Z 18006KT 10SM FEW250 14/M04 A3023 RMK AO2 SLP239 T01391044

METAR Board
Radar Display
Forecast Discussion

FOR SITUATIONAL AWARENESS. NOT TO BE USED FOR FLIGHT PLANNING PURPOSES.